Time;durP1;ratioP1;P1;durP2;ratioP2;P2;SDS_P1;SDS_P2;PMS_P1;PMS_P2;Temp;Humidity;BMP_temperature;BMP_pressure;BME280_temperature;BME280_humidity;BME280_pressure;Samples;Min_cycle;Max_cycle;Signal;HPM_P1;HPM_P2
2022/03/28 00:01:53;;;;;;;19.17;8.13;;;;;;;;;;5056781;28;20110;-76
2022/03/28 00:04:19;;;;;;;24.67;7.35;;;;;;;;;;5072448;28;20480;-75
2022/03/28 00:06:45;;;;;;;5.10;3.10;;;;;;;;;;5057363;28;20068;-76
2022/03/28 00:09:12;;;;;;;18.95;6.63;;;;;;;;;;5073566;28;20037;-76
2022/03/28 00:11:38;;;;;;;8.02;3.40;;;;;;;;;;5074071;28;20040;-77
2022/03/28 00:14:04;;;;;;;21.13;5.47;;;;;;;;;;5079710;28;20101;-75
2022/03/28 00:16:30;;;;;;;9.07;4.93;;;;;;;;;;5056752;28;20048;-76
2022/03/28 00:20:09;;;;;;;19.10;7.22;;;;;;;;;;5007201;27;20441;-75
2022/03/28 00:22:35;;;;;;;15.57;5.90;;;;;;;;;;5004471;28;20050;-74
2022/03/28 00:25:01;;;;;;;18.08;6.70;;;;;;;;;;4988858;28;20132;-76
2022/03/28 00:27:27;;;;;;;12.52;5.85;;;;;;;;;;5017474;28;20065;-77
2022/03/28 00:29:53;;;;;;;17.23;6.80;;;;;;;;;;5006735;28;20050;-76
2022/03/28 00:32:19;;;;;;;26.50;10.45;;;;;;;;;;4988863;28;20409;-76
2022/03/28 00:34:45;;;;;;;21.17;9.50;;;;;;;;;;4988450;28;20100;-76
2022/03/28 00:37:11;;;;;;;12.63;4.35;;;;;;;;;;4990361;28;20042;-77
2022/03/28 00:39:37;;;;;;;27.00;9.07;;;;;;;;;;5004746;28;20490;-76
2022/03/28 00:42:03;;;;;;;24.35;8.77;;;;;;;;;;5004349;28;20465;-76
2022/03/28 00:44:32;;;;;;;22.25;8.70;;;;;;;;;;5004312;28;20038;-76
2022/03/28 00:46:58;;;;;;;32.95;11.82;;;;;;;;;;4987898;28;20038;-75
2022/03/28 00:49:25;;;;;;;17.50;6.88;;;;;;;;;;5004793;28;20394;-76
2022/03/28 00:51:51;;;;;;;31.13;9.95;;;;;;;;;;5004331;28;20038;-75
2022/03/28 00:54:17;;;;;;;26.58;8.30;;;;;;;;;;5004124;28;20038;-76
2022/03/28 00:56:43;;;;;;;19.90;8.70;;;;;;;;;;5004362;28;20125;-76
2022/03/28 00:59:11;;;;;;;7.22;3.42;;;;;;;;;;4993565;28;20481;-77
2022/03/28 01:01:37;;;;;;;11.82;5.05;;;;;;;;;;5006917;28;20045;-76
2022/03/28 01:04:06;;;;;;;26.13;9.48;;;;;;;;;;5006105;28;20050;-76
2022/03/28 01:06:33;;;;;;;18.42;7.90;;;;;;;;;;5004102;28;20042;-76
2022/03/28 01:08:59;;;;;;;16.83;5.50;;;;;;;;;;4988742;28;20042;-76
2022/03/28 01:11:26;;;;;;;13.43;5.03;;;;;;;;;;4988602;28;20065;-76
2022/03/28 01:13:53;;;;;;;9.88;5.18;;;;;;;;;;4988047;28;20094;-77
2022/03/28 01:16:19;;;;;;;23.08;7.07;;;;;;;;;;5004758;28;20088;-77
2022/03/28 01:18:49;;;;;;;12.60;4.45;;;;;;;;;;4991349;28;20054;-77
2022/03/28 01:21:19;;;;;;;7.70;4.35;;;;;;;;;;5010347;28;20046;-78
2022/03/28 01:23:45;;;;;;;6.07;2.45;;;;;;;;;;4989037;28;20042;-77
2022/03/28 01:26:14;;;;;;;19.00;7.43;;;;;;;;;;4987888;28;20447;-76
2022/03/28 01:28:40;;;;;;;17.45;6.75;;;;;;;;;;5003594;28;20064;-76
2022/03/28 01:31:07;;;;;;;16.33;5.40;;;;;;;;;;4976411;28;20084;-76
2022/03/28 01:33:35;;;;;;;15.77;6.68;;;;;;;;;;4990970;28;20056;-76
2022/03/28 01:36:00;;;;;;;20.75;8.20;;;;;;;;;;4975097;28;20045;-76
2022/03/28 01:38:26;;;;;;;18.88;7.30;;;;;;;;;;4990532;28;20042;-75
2022/03/28 01:40:53;;;;;;;13.93;4.35;;;;;;;;;;4974822;28;20043;-76
2022/03/28 01:43:20;;;;;;;16.42;7.20;;;;;;;;;;4977092;28;20046;-76
2022/03/28 01:45:47;;;;;;;21.65;7.07;;;;;;;;;;4974403;28;20048;-76
2022/03/28 01:48:13;;;;;;;19.38;7.05;;;;;;;;;;4973948;28;20402;-75
2022/03/28 01:50:40;;;;;;;17.67;7.30;;;;;;;;;;4990270;28;20054;-75
2022/03/28 01:53:06;;;;;;;12.75;6.13;;;;;;;;;;4990619;28;20045;-76
2022/03/28 01:55:32;;;;;;;12.05;6.25;;;;;;;;;;4990414;28;20042;-75
2022/03/28 01:57:58;;;;;;;14.88;6.90;;;;;;;;;;4990020;28;20137;-75
2022/03/28 02:00:25;;;;;;;14.02;6.88;;;;;;;;;;4973916;28;20129;-77
2022/03/28 02:02:51;;;;;;;15.02;5.93;;;;;;;;;;4973950;28;20398;-77
2022/03/28 02:05:18;;;;;;;11.00;4.75;;;;;;;;;;4974711;28;20042;-76
2022/03/28 02:07:46;;;;;;;14.75;6.47;;;;;;;;;;4989984;28;20050;-76
2022/03/28 02:10:14;;;;;;;15.25;6.97;;;;;;;;;;4989956;28;20038;-76
2022/03/28 02:12:40;;;;;;;12.32;5.57;;;;;;;;;;4990078;28;20870;-76
2022/03/28 02:15:07;;;;;;;16.30;5.80;;;;;;;;;;4990186;28;20042;-78
2022/03/28 02:17:33;;;;;;;18.33;6.13;;;;;;;;;;4990792;28;20068;-78
2022/03/28 02:19:59;;;;;;;21.58;7.95;;;;;;;;;;4989578;28;20096;-77
2022/03/28 02:22:25;;;;;;;25.77;9.13;;;;;;;;;;4973737;28;20074;-77
2022/03/28 02:24:51;;;;;;;22.60;7.45;;;;;;;;;;4973544;28;20127;-76
2022/03/28 02:27:18;;;;;;;20.65;9.00;;;;;;;;;;4973516;28;20129;-76
2022/03/28 02:29:44;;;;;;;20.20;8.13;;;;;;;;;;4989618;28;20066;-77
2022/03/28 02:32:11;;;;;;;16.65;7.85;;;;;;;;;;4973329;28;20072;-77
2022/03/28 02:34:37;;;;;;;7.85;3.58;;;;;;;;;;4990444;28;20157;-77
2022/03/28 02:37:03;;;;;;;12.82;5.55;;;;;;;;;;4973772;28;20050;-77
2022/03/28 02:39:29;;;;;;;15.93;6.72;;;;;;;;;;4989775;28;20074;-77
2022/03/28 02:41:55;;;;;;;11.68;6.00;;;;;;;;;;4988066;28;20525;-77
2022/03/28 02:44:21;;;;;;;12.68;5.22;;;;;;;;;;4973413;28;20050;-76
2022/03/28 02:46:47;;;;;;;16.63;7.47;;;;;;;;;;4973201;28;20069;-76
2022/03/28 02:49:13;;;;;;;11.40;5.95;;;;;;;;;;4973339;28;20042;-76
2022/03/28 02:51:39;;;;;;;7.40;4.32;;;;;;;;;;4974126;28;20137;-77
2022/03/28 02:54:06;;;;;;;10.38;4.88;;;;;;;;;;4989637;28;20073;-76
2022/03/28 02:56:32;;;;;;;16.45;6.00;;;;;;;;;;4990059;28;20038;-77
2022/03/28 02:58:58;;;;;;;11.18;4.97;;;;;;;;;;4973158;28;20099;-77
2022/03/28 03:01:24;;;;;;;4.97;2.47;;;;;;;;;;4989817;28;20042;-77
2022/03/28 03:03:50;;;;;;;9.13;4.75;;;;;;;;;;4973102;28;20070;-77
2022/03/28 03:06:16;;;;;;;6.38;3.53;;;;;;;;;;4990220;28;20085;-77
2022/03/28 03:08:42;;;;;;;9.70;3.88;;;;;;;;;;4994149;28;20410;-77
2022/03/28 03:11:09;;;;;;;12.48;5.38;;;;;;;;;;4991217;28;20050;-76
2022/03/28 03:13:35;;;;;;;13.82;6.85;;;;;;;;;;4973441;28;20049;-76
2022/03/28 03:16:01;;;;;;;16.38;6.63;;;;;;;;;;4972975;28;20047;-76
2022/03/28 03:18:27;;;;;;;14.45;6.10;;;;;;;;;;4972651;28;20395;-76
2022/03/28 03:20:53;;;;;;;19.02;7.25;;;;;;;;;;4988837;28;20038;-76
2022/03/28 03:23:19;;;;;;;17.48;7.65;;;;;;;;;;4972896;28;20497;-76
2022/03/28 03:25:45;;;;;;;19.67;7.30;;;;;;;;;;4972595;28;20080;-76
2022/03/28 03:28:11;;;;;;;15.73;7.30;;;;;;;;;;4972802;28;20077;-76
2022/03/28 03:30:37;;;;;;;14.68;6.53;;;;;;;;;;4972554;28;20053;-76
2022/03/28 03:33:03;;;;;;;14.02;6.40;;;;;;;;;;4988601;28;20046;-76
2022/03/28 03:35:29;;;;;;;4.18;2.28;;;;;;;;;;4989082;28;20089;-76
2022/03/28 03:37:55;;;;;;;4.60;2.65;;;;;;;;;;4994738;28;20053;-76
2022/03/28 03:40:21;;;;;;;13.43;5.47;;;;;;;;;;4989428;28;20037;-78
2022/03/28 03:42:47;;;;;;;11.65;5.18;;;;;;;;;;4974662;28;20125;-77
2022/03/28 03:45:14;;;;;;;14.05;5.60;;;;;;;;;;4972330;28;20038;-76
2022/03/28 03:47:40;;;;;;;12.30;5.72;;;;;;;;;;4988728;28;20138;-76
2022/03/28 03:50:07;;;;;;;13.85;6.40;;;;;;;;;;4989033;28;20046;-77
2022/03/28 03:52:34;;;;;;;8.40;4.18;;;;;;;;;;4972409;28;20482;-77
2022/03/28 03:55:00;;;;;;;11.18;4.75;;;;;;;;;;4989697;28;20077;-76
2022/03/28 03:57:26;;;;;;;14.68;5.63;;;;;;;;;;4989956;28;20517;-76
2022/03/28 03:59:52;;;;;;;14.32;5.72;;;;;;;;;;4972376;28;20050;-76
2022/03/28 04:02:18;;;;;;;14.23;4.78;;;;;;;;;;4972309;28;20566;-78
2022/03/28 04:04:44;;;;;;;13.93;5.70;;;;;;;;;;4972892;28;20034;-76
2022/03/28 04:07:10;;;;;;;8.90;2.67;;;;;;;;;;4972740;28;20463;-77
2022/03/28 04:09:36;;;;;;;8.48;3.05;;;;;;;;;;4989879;28;20113;-77
2022/03/28 04:12:02;;;;;;;6.38;3.67;;;;;;;;;;4989829;28;20038;-78
2022/03/28 04:14:28;;;;;;;8.45;3.95;;;;;;;;;;4991214;28;20119;-77
2022/03/28 04:16:55;;;;;;;9.50;3.53;;;;;;;;;;4988650;28;20043;-77
2022/03/28 04:19:21;;;;;;;19.13;6.25;;;;;;;;;;4987941;28;20054;-77
2022/03/28 04:21:48;;;;;;;13.93;5.47;;;;;;;;;;4972943;28;20102;-76
2022/03/28 04:24:14;;;;;;;7.18;2.83;;;;;;;;;;4988760;28;20061;-77
2022/03/28 04:26:40;;;;;;;12.60;4.85;;;;;;;;;;4972686;28;20490;-78
2022/03/28 04:29:06;;;;;;;3.38;1.88;;;;;;;;;;4989252;28;20077;-78
2022/03/28 04:31:33;;;;;;;3.95;1.38;;;;;;;;;;4990105;28;20129;-79
2022/03/28 04:33:59;;;;;;;7.50;3.47;;;;;;;;;;4972122;28;20043;-78
2022/03/28 04:36:26;;;;;;;9.30;3.90;;;;;;;;;;4990829;28;20042;-78
2022/03/28 04:38:52;;;;;;;7.45;3.45;;;;;;;;;;4988229;28;20088;-80
2022/03/28 04:41:18;;;;;;;7.10;3.70;;;;;;;;;;4972300;28;20428;-79
2022/03/28 04:43:44;;;;;;;3.00;1.65;;;;;;;;;;4991119;28;20050;-78
2022/03/28 04:46:10;;;;;;;4.05;2.38;;;;;;;;;;4982683;28;20034;-77
2022/03/28 04:48:36;;;;;;;4.93;3.38;;;;;;;;;;4982184;28;20046;-77
2022/03/28 04:51:02;;;;;;;3.33;1.83;;;;;;;;;;4995157;28;20049;-77
2022/03/28 04:53:28;;;;;;;5.57;2.47;;;;;;;;;;4992699;28;20107;-78
2022/03/28 04:55:54;;;;;;;9.95;2.53;;;;;;;;;;4979665;28;20070;-77
2022/03/28 04:58:20;;;;;;;3.50;1.58;;;;;;;;;;4997746;28;20406;-77
2022/03/28 05:00:46;;;;;;;6.93;2.65;;;;;;;;;;4974827;28;20191;-78
2022/03/28 05:03:12;;;;;;;3.33;1.85;;;;;;;;;;4990813;28;20395;-76
2022/03/28 05:05:38;;;;;;;2.50;1.50;;;;;;;;;;4978800;28;20061;-77
2022/03/28 05:08:04;;;;;;;2.95;1.23;;;;;;;;;;4998720;28;20042;-77
2022/03/28 05:10:30;;;;;;;7.55;2.25;;;;;;;;;;4993940;28;20121;-77
2022/03/28 05:12:56;;;;;;;2.63;0.80;;;;;;;;;;4993346;28;20062;-77
2022/03/28 05:15:23;;;;;;;4.53;2.30;;;;;;;;;;4998245;28;20042;-77
2022/03/28 05:17:49;;;;;;;4.60;1.67;;;;;;;;;;4993152;28;20462;-77
2022/03/28 05:20:15;;;;;;;3.83;1.83;;;;;;;;;;4979208;28;20089;-77
2022/03/28 05:22:41;;;;;;;1.95;1.45;;;;;;;;;;4989380;28;20042;-77
2022/03/28 05:25:07;;;;;;;11.25;3.95;;;;;;;;;;4983104;28;20042;-77
2022/03/28 05:27:33;;;;;;;6.65;3.17;;;;;;;;;;4994518;28;20034;-77
2022/03/28 05:29:59;;;;;;;11.30;3.55;;;;;;;;;;4976957;28;20042;-76
2022/03/28 05:32:25;;;;;;;13.05;2.78;;;;;;;;;;4981571;28;20394;-77
2022/03/28 05:34:51;;;;;;;9.88;3.95;;;;;;;;;;4998691;28;20100;-77
2022/03/28 05:37:18;;;;;;;7.88;3.35;;;;;;;;;;4983485;28;20054;-77
2022/03/28 05:39:45;;;;;;;15.77;6.15;;;;;;;;;;4995651;28;20048;-77
2022/03/28 05:42:11;;;;;;;8.00;3.50;;;;;;;;;;4977857;28;20054;-76
2022/03/28 05:44:39;;;;;;;6.18;3.10;;;;;;;;;;4992205;28;20073;-77
2022/03/28 05:47:05;;;;;;;10.63;4.57;;;;;;;;;;4991287;28;20084;-77
2022/03/28 05:49:31;;;;;;;8.40;3.45;;;;;;;;;;4975878;28;20129;-76
2022/03/28 05:51:57;;;;;;;5.97;2.22;;;;;;;;;;4995254;28;20066;-76
2022/03/28 05:54:23;;;;;;;14.98;5.22;;;;;;;;;;4994072;28;20125;-77
2022/03/28 05:56:49;;;;;;;8.80;3.60;;;;;;;;;;4993195;28;20085;-76
2022/03/28 05:59:15;;;;;;;12.52;4.35;;;;;;;;;;4991168;28;20039;-77
2022/03/28 06:01:41;;;;;;;17.77;6.10;;;;;;;;;;4990580;28;20080;-77
2022/03/28 06:04:07;;;;;;;13.40;4.63;;;;;;;;;;4990957;28;20042;-78
2022/03/28 06:06:33;;;;;;;5.28;2.03;;;;;;;;;;4975572;28;20042;-78
2022/03/28 06:09:00;;;;;;;6.43;2.38;;;;;;;;;;4992767;28;20053;-78
2022/03/28 06:11:26;;;;;;;12.13;3.75;;;;;;;;;;4992215;28;20414;-78
2022/03/28 06:13:53;;;;;;;12.38;3.90;;;;;;;;;;4991140;28;20038;-78
2022/03/28 06:16:20;;;;;;;9.55;3.60;;;;;;;;;;4974791;28;20046;-77
2022/03/28 06:18:46;;;;;;;16.80;5.10;;;;;;;;;;4974319;28;20108;-77
2022/03/28 06:21:12;;;;;;;7.43;3.47;;;;;;;;;;4990073;28;20038;-78
2022/03/28 06:23:38;;;;;;;2.47;1.52;;;;;;;;;;4990310;28;20397;-77
2022/03/28 06:26:04;;;;;;;17.33;4.03;;;;;;;;;;4973856;28;20041;-77
2022/03/28 06:28:30;;;;;;;12.13;4.25;;;;;;;;;;4973916;28;20046;-77
2022/03/28 06:30:57;;;;;;;9.88;3.30;;;;;;;;;;4990273;28;20137;-78
2022/03/28 06:33:23;;;;;;;18.23;6.40;;;;;;;;;;4973707;28;20042;-78
2022/03/28 06:35:49;;;;;;;9.02;2.70;;;;;;;;;;4973549;28;20042;-79
2022/03/28 06:38:15;;;;;;;13.20;3.75;;;;;;;;;;4978310;28;20051;-78
2022/03/28 06:40:41;;;;;;;10.60;4.03;;;;;;;;;;4991356;28;20053;-77
2022/03/28 06:43:07;;;;;;;4.53;2.55;;;;;;;;;;4990615;28;20031;-78
2022/03/28 06:45:36;;;;;;;9.00;2.92;;;;;;;;;;4974029;28;20047;-78
2022/03/28 06:48:02;;;;;;;9.13;3.60;;;;;;;;;;4973843;28;20054;-78
2022/03/28 06:50:28;;;;;;;9.52;3.85;;;;;;;;;;4988382;28;20272;-78
2022/03/28 06:52:54;;;;;;;5.65;3.15;;;;;;;;;;4971324;28;20384;-78
2022/03/28 06:55:20;;;;;;;16.52;5.57;;;;;;;;;;4972598;28;20085;-77
2022/03/28 06:57:46;;;;;;;10.65;5.03;;;;;;;;;;4986278;28;20046;-77
2022/03/28 07:00:13;;;;;;;19.42;6.45;;;;;;;;;;4985844;28;20040;-78
2022/03/28 07:02:39;;;;;;;18.17;7.03;;;;;;;;;;4986622;28;20061;-77
2022/03/28 07:05:06;;;;;;;20.30;6.95;;;;;;;;;;4985796;28;20510;-78
2022/03/28 07:07:58;;;;;;;11.80;5.07;;;;;;;;;;4970435;28;20565;-78
2022/03/28 07:10:24;;;;;;;14.68;5.07;;;;;;;;;;4987945;28;20391;-77
2022/03/28 07:12:53;;;;;;;27.88;10.52;;;;;;;;;;4986481;28;20498;-76
2022/03/28 07:15:19;;;;;;;18.88;7.25;;;;;;;;;;4970124;28;20408;-77
2022/03/28 07:17:51;;;;;;;22.50;7.05;;;;;;;;;;4969110;28;20046;-77
2022/03/28 07:20:17;;;;;;;48.35;14.90;;;;;;;;;;4969050;28;20104;-77
2022/03/28 07:22:43;;;;;;;23.13;7.38;;;;;;;;;;4969277;28;20050;-77
2022/03/28 07:25:10;;;;;;;16.80;6.03;;;;;;;;;;4969216;28;20154;-77
2022/03/28 07:27:37;;;;;;;9.13;3.72;;;;;;;;;;4968714;28;20038;-78
2022/03/28 07:30:03;;;;;;;21.40;7.55;;;;;;;;;;4985220;28;20134;-76
2022/03/28 07:32:29;;;;;;;15.65;6.50;;;;;;;;;;4985587;28;20592;-76
2022/03/28 07:34:55;;;;;;;22.08;7.50;;;;;;;;;;4985415;28;20054;-76
2022/03/28 07:37:22;;;;;;;11.77;4.18;;;;;;;;;;4985072;28;20100;-78
2022/03/28 07:39:48;;;;;;;31.08;10.30;;;;;;;;;;4969023;28;20130;-77
2022/03/28 07:42:14;;;;;;;29.85;7.07;;;;;;;;;;4969049;28;20161;-77
2022/03/28 07:44:42;;;;;;;32.25;10.15;;;;;;;;;;4985019;28;20089;-77
2022/03/28 07:47:11;;;;;;;17.05;6.25;;;;;;;;;;4969014;28;20049;-76
2022/03/28 07:49:38;;;;;;;18.95;6.93;;;;;;;;;;4985206;28;20161;-77
2022/03/28 07:52:06;;;;;;;16.67;5.55;;;;;;;;;;4984918;28;20050;-77
2022/03/28 07:54:32;;;;;;;13.93;5.07;;;;;;;;;;4968857;28;20126;-77
2022/03/28 07:56:58;;;;;;;19.98;4.57;;;;;;;;;;4970309;28;20093;-78
2022/03/28 07:59:24;;;;;;;17.23;6.22;;;;;;;;;;4969668;28;20099;-76
2022/03/28 08:01:54;;;;;;;19.30;6.82;;;;;;;;;;4970154;28;20038;-77
2022/03/28 08:04:19;;;;;;;14.50;6.20;;;;;;;;;;4969573;28;20078;-77
2022/03/28 08:06:45;;;;;;;13.57;6.15;;;;;;;;;;4985301;28;20089;-76
2022/03/28 08:09:11;;;;;;;9.82;4.22;;;;;;;;;;4970161;28;20042;-77
2022/03/28 08:11:37;;;;;;;17.70;3.00;;;;;;;;;;4973791;28;20078;-78
2022/03/28 08:14:04;;;;;;;10.25;4.70;;;;;;;;;;4971906;28;20042;-77
2022/03/28 08:16:31;;;;;;;9.00;3.42;;;;;;;;;;4972113;28;20086;-77
2022/03/28 08:18:57;;;;;;;26.38;6.32;;;;;;;;;;4972272;28;20104;-77
2022/03/28 08:21:23;;;;;;;10.23;3.10;;;;;;;;;;4986945;28;20046;-77
2022/03/28 08:23:49;;;;;;;15.15;5.32;;;;;;;;;;4970226;28;20043;-77
2022/03/28 08:26:15;;;;;;;13.38;3.42;;;;;;;;;;4988930;28;20042;-78
2022/03/28 08:28:42;;;;;;;12.55;4.63;;;;;;;;;;4965365;28;20042;-77
2022/03/28 08:31:08;;;;;;;13.82;5.32;;;;;;;;;;4972950;28;20054;-77
2022/03/28 08:33:34;;;;;;;11.75;4.53;;;;;;;;;;4974900;28;20041;-78
2022/03/28 08:36:00;;;;;;;17.13;6.18;;;;;;;;;;4962321;28;20126;-77
2022/03/28 08:38:26;;;;;;;15.30;6.72;;;;;;;;;;4973638;28;20085;-77
2022/03/28 08:40:52;;;;;;;14.27;6.35;;;;;;;;;;4975704;28;20077;-77
2022/03/28 08:43:19;;;;;;;19.25;5.78;;;;;;;;;;4961942;28;20057;-77
2022/03/28 08:45:46;;;;;;;14.35;5.53;;;;;;;;;;4960440;28;20096;-76
2022/03/28 08:48:14;;;;;;;3.65;2.22;;;;;;;;;;4961387;28;20060;-77
2022/03/28 08:50:41;;;;;;;17.63;5.95;;;;;;;;;;4978407;28;20505;-77
2022/03/28 08:53:07;;;;;;;13.48;5.45;;;;;;;;;;4960693;28;20156;-77
2022/03/28 08:55:33;;;;;;;22.17;7.72;;;;;;;;;;4978396;28;20113;-77
2022/03/28 08:57:59;;;;;;;18.08;6.65;;;;;;;;;;4975625;28;20039;-77
2022/03/28 09:00:25;;;;;;;13.57;6.32;;;;;;;;;;4978505;28;20066;-77
2022/03/28 09:02:55;;;;;;;13.98;5.88;;;;;;;;;;4960692;28;20125;-77
2022/03/28 09:05:29;;;;;;;15.52;6.32;;;;;;;;;;4978257;28;20442;-77
2022/03/28 09:07:58;;;;;;;23.30;8.02;;;;;;;;;;4974506;28;20050;-77
2022/03/28 09:10:24;;;;;;;18.55;7.07;;;;;;;;;;4962122;28;20475;-77
2022/03/28 09:12:57;;;;;;;20.80;6.65;;;;;;;;;;4960463;28;20065;-78
2022/03/28 09:15:23;;;;;;;18.05;6.25;;;;;;;;;;4977480;28;20091;-77
2022/03/28 09:17:56;;;;;;;21.65;7.32;;;;;;;;;;4960066;28;20394;-78
2022/03/28 09:20:23;;;;;;;12.63;5.05;;;;;;;;;;4958955;28;20513;-78
2022/03/28 09:22:50;;;;;;;19.35;6.82;;;;;;;;;;4976529;28;20046;-77
2022/03/28 09:25:18;;;;;;;16.85;6.93;;;;;;;;;;4961207;28;20061;-77
2022/03/28 09:27:49;;;;;;;16.13;5.63;;;;;;;;;;4959365;28;20412;-77
2022/03/28 09:30:17;;;;;;;16.13;5.75;;;;;;;;;;4959495;28;20084;-77
2022/03/28 09:32:44;;;;;;;15.32;5.90;;;;;;;;;;4960634;28;20045;-77
2022/03/28 09:35:21;;;;;;;17.30;8.63;;;;;;;;;;4961015;28;20135;-78
2022/03/28 09:38:08;;;;;;;16.30;6.32;;;;;;;;;;4962305;28;20121;-79
2022/03/28 09:40:35;;;;;;;14.77;6.20;;;;;;;;;;4978677;28;20524;-77
2022/03/28 09:43:02;;;;;;;12.15;4.22;;;;;;;;;;4981761;28;20047;-78
2022/03/28 09:45:31;;;;;;;13.65;5.88;;;;;;;;;;4987354;28;20442;-78
2022/03/28 09:48:15;;;;;;;17.63;6.53;;;;;;;;;;4986967;28;20541;-77
2022/03/28 09:50:46;;;;;;;14.50;5.85;;;;;;;;;;4985973;28;20042;-78
2022/03/28 09:53:22;;;;;;;15.85;6.53;;;;;;;;;;4986864;28;20046;-78
2022/03/28 09:55:55;;;;;;;18.90;7.10;;;;;;;;;;4970168;28;20045;-77
2022/03/28 09:58:36;;;;;;;18.88;6.28;;;;;;;;;;4986431;28;20038;-78
2022/03/28 10:01:05;;;;;;;19.10;6.03;;;;;;;;;;4986468;28;20042;-77
2022/03/28 10:03:35;;;;;;;19.75;7.57;;;;;;;;;;4986278;28;20053;-78
2022/03/28 10:06:02;;;;;;;14.40;6.27;;;;;;;;;;4970203;28;20135;-77
2022/03/28 10:08:28;;;;;;;18.02;5.82;;;;;;;;;;4985784;28;20459;-78
2022/03/28 10:10:55;;;;;;;14.75;5.95;;;;;;;;;;4986415;28;20046;-78
2022/03/28 10:13:22;;;;;;;18.10;7.57;;;;;;;;;;4970138;28;20042;-78
2022/03/28 10:15:48;;;;;;;19.63;7.00;;;;;;;;;;4970276;28;20701;-78
2022/03/28 10:18:14;;;;;;;18.05;7.47;;;;;;;;;;4986246;28;20054;-77
2022/03/28 10:20:42;;;;;;;15.85;6.88;;;;;;;;;;4969469;28;20042;-77
2022/03/28 10:23:09;;;;;;;15.30;6.78;;;;;;;;;;4970366;28;20077;-79
2022/03/28 10:25:35;;;;;;;14.60;6.10;;;;;;;;;;4986309;28;20073;-79
2022/03/28 10:28:01;;;;;;;22.27;7.70;;;;;;;;;;4988357;28;20050;-78
2022/03/28 10:30:30;;;;;;;15.07;5.97;;;;;;;;;;4989311;28;20185;-78
2022/03/28 10:33:09;;;;;;;22.00;7.22;;;;;;;;;;4979298;28;20050;-78
2022/03/28 10:35:35;;;;;;;16.05;6.07;;;;;;;;;;4979370;28;20072;-78
2022/03/28 10:38:15;;;;;;;15.60;6.63;;;;;;;;;;4977963;28;20045;-78
2022/03/28 10:40:52;;;;;;;15.40;7.28;;;;;;;;;;4964342;28;20034;-79
2022/03/28 10:43:19;;;;;;;17.55;6.97;;;;;;;;;;4980685;28;20042;-78
2022/03/28 10:45:46;;;;;;;17.20;7.03;;;;;;;;;;4977710;28;20088;-79
2022/03/28 10:48:12;;;;;;;16.27;7.18;;;;;;;;;;4980481;28;20050;-78
2022/03/28 10:50:51;;;;;;;16.90;7.63;;;;;;;;;;4964899;28;20038;-78
2022/03/28 10:53:43;;;;;;;16.25;7.25;;;;;;;;;;4961669;28;20080;-78
2022/03/28 10:56:20;;;;;;;17.30;7.57;;;;;;;;;;4964256;28;20038;-78
2022/03/28 10:58:53;;;;;;;20.73;8.20;;;;;;;;;;4976689;28;20047;-78
2022/03/28 11:01:22;;;;;;;16.25;6.85;;;;;;;;;;4977870;28;20529;-78
2022/03/28 11:04:03;;;;;;;15.75;7.68;;;;;;;;;;4976719;28;20489;-78
2022/03/28 11:06:52;;;;;;;25.55;7.97;;;;;;;;;;4979428;28;20088;-78
2022/03/28 11:09:35;;;;;;;20.02;7.57;;;;;;;;;;4964485;28;20449;-77
2022/03/28 11:12:06;;;;;;;17.90;7.53;;;;;;;;;;4963472;28;20088;-78
2022/03/28 11:14:39;;;;;;;17.27;7.63;;;;;;;;;;4963953;28;20528;-78
2022/03/28 11:17:15;;;;;;;16.38;6.93;;;;;;;;;;4978577;28;20482;-78
2022/03/28 11:20:03;;;;;;;17.17;7.45;;;;;;;;;;4978055;28;20067;-78
2022/03/28 11:22:39;;;;;;;16.70;7.45;;;;;;;;;;4980050;28;20073;-79
2022/03/28 11:25:05;;;;;;;12.13;6.18;;;;;;;;;;4963915;28;20039;-79
2022/03/28 11:27:33;;;;;;;13.48;6.97;;;;;;;;;;4966587;28;20046;-80
2022/03/28 11:30:01;;;;;;;18.08;8.13;;;;;;;;;;4962407;28;20049;-79
2022/03/28 11:32:29;;;;;;;13.05;5.93;;;;;;;;;;4963182;28;20042;-78
2022/03/28 11:34:56;;;;;;;15.02;7.50;;;;;;;;;;4964356;28;20074;-78
2022/03/28 11:37:23;;;;;;;12.07;5.30;;;;;;;;;;4961850;28;20121;-80
2022/03/28 11:39:52;;;;;;;18.30;7.70;;;;;;;;;;4978157;28;20530;-79
2022/03/28 11:42:25;;;;;;;15.35;7.38;;;;;;;;;;4962193;28;20057;-78
2022/03/28 11:44:52;;;;;;;14.95;8.02;;;;;;;;;;4976835;28;20042;-78
2022/03/28 11:47:18;;;;;;;14.13;6.30;;;;;;;;;;4961473;28;20038;-79
2022/03/28 11:49:55;;;;;;;12.50;6.60;;;;;;;;;;4962363;28;20038;-79
2022/03/28 11:52:21;;;;;;;11.68;6.55;;;;;;;;;;4977920;28;20039;-78
2022/03/28 11:54:47;;;;;;;18.60;7.85;;;;;;;;;;4978062;28;20042;-78
2022/03/28 12:00:16;;;;;;;14.73;7.43;;;;;;;;;;4977711;28;20051;-78
2022/03/28 12:02:48;;;;;;;14.82;7.93;;;;;;;;;;4976643;28;20030;-78
2022/03/28 12:05:24;;;;;;;15.52;7.18;;;;;;;;;;4976194;28;20042;-78
2022/03/28 12:07:50;;;;;;;14.98;7.32;;;;;;;;;;4964862;28;20034;-78
2022/03/28 12:10:16;;;;;;;15.27;8.15;;;;;;;;;;4976982;28;20042;-79
2022/03/28 12:12:43;;;;;;;14.63;7.53;;;;;;;;;;4977533;28;20375;-79
2022/03/28 12:15:13;;;;;;;15.63;7.65;;;;;;;;;;4977702;28;20045;-78
2022/03/28 12:17:39;;;;;;;15.52;8.50;;;;;;;;;;4978962;28;20043;-78
2022/03/28 12:20:06;;;;;;;14.60;8.18;;;;;;;;;;4980446;28;20050;-77
2022/03/28 12:22:43;;;;;;;15.60;7.75;;;;;;;;;;4964329;28;20506;-78
2022/03/28 12:25:09;;;;;;;16.85;8.15;;;;;;;;;;4963370;28;20034;-78
2022/03/28 12:27:35;;;;;;;10.52;5.93;;;;;;;;;;4963324;28;20083;-79
2022/03/28 12:30:01;;;;;;;15.32;8.25;;;;;;;;;;4979963;28;20077;-79
2022/03/28 12:32:27;;;;;;;14.25;7.75;;;;;;;;;;4961117;28;20180;-78
2022/03/28 12:34:53;;;;;;;16.42;7.40;;;;;;;;;;4980149;28;20046;-80
2022/03/28 12:37:19;;;;;;;17.30;9.05;;;;;;;;;;4963026;28;20042;-79
2022/03/28 12:39:45;;;;;;;20.85;8.98;;;;;;;;;;4977690;28;20135;-79
2022/03/28 12:42:24;;;;;;;15.82;8.10;;;;;;;;;;4960549;28;20074;-80
2022/03/28 12:44:53;;;;;;;12.52;6.20;;;;;;;;;;4976759;28;20085;-81
2022/03/28 12:47:19;;;;;;;16.33;7.82;;;;;;;;;;4981505;28;20518;-80
2022/03/28 12:49:45;;;;;;;14.75;7.88;;;;;;;;;;4960435;28;20130;-80
2022/03/28 12:52:11;;;;;;;16.20;8.38;;;;;;;;;;4962530;28;20504;-79
2022/03/28 12:54:38;;;;;;;16.77;8.73;;;;;;;;;;4962604;28;20159;-79
2022/03/28 12:57:05;;;;;;;16.30;9.20;;;;;;;;;;4975135;28;20054;-79
2022/03/28 12:59:31;;;;;;;19.15;9.38;;;;;;;;;;4964451;28;20093;-80
2022/03/28 13:02:12;;;;;;;11.27;5.97;;;;;;;;;;4979828;28;20122;-81
2022/03/28 13:04:42;;;;;;;17.30;9.35;;;;;;;;;;4976639;28;20046;-79
2022/03/28 13:07:08;;;;;;;25.50;8.27;;;;;;;;;;4960741;28;20080;-79
2022/03/28 13:09:34;;;;;;;14.30;7.57;;;;;;;;;;4958192;28;20066;-80
2022/03/28 13:12:10;;;;;;;15.98;8.77;;;;;;;;;;4957904;28;20043;-79
2022/03/28 13:14:38;;;;;;;16.67;9.15;;;;;;;;;;4962595;28;20057;-79
2022/03/28 13:17:08;;;;;;;18.08;10.00;;;;;;;;;;4959105;28;20055;-78
2022/03/28 13:19:35;;;;;;;21.23;11.07;;;;;;;;;;4981149;28;20108;-79
2022/03/28 13:22:04;;;;;;;18.52;10.48;;;;;;;;;;4961659;28;20035;-78
2022/03/28 13:24:30;;;;;;;22.13;9.45;;;;;;;;;;4981769;28;20050;-75
2022/03/28 13:29:48;;;;;;;15.70;7.82;;;;;;;;;;4978519;28;20476;-75
2022/03/28 13:32:14;;;;;;;20.13;10.63;;;;;;;;;;4967213;28;20042;-78
2022/03/28 13:34:40;;;;;;;16.75;9.10;;;;;;;;;;4965712;28;20465;-74
2022/03/28 13:37:06;;;;;;;20.85;10.00;;;;;;;;;;4973778;28;20048;-78
2022/03/28 13:39:33;;;;;;;22.83;10.98;;;;;;;;;;4961641;28;20050;-78
2022/03/28 13:41:59;;;;;;;17.40;9.27;;;;;;;;;;4966490;28;20077;-79
2022/03/28 13:44:25;;;;;;;20.10;8.65;;;;;;;;;;4963326;28;20066;-77
2022/03/28 13:46:51;;;;;;;17.42;8.27;;;;;;;;;;4961786;28;20078;-77
2022/03/28 13:49:17;;;;;;;22.13;10.10;;;;;;;;;;4981150;28;20038;-80
2022/03/28 13:51:43;;;;;;;19.20;9.38;;;;;;;;;;4979654;28;20136;-79
2022/03/28 13:54:10;;;;;;;7.25;3.90;;;;;;;;;;4964759;28;20050;-78
2022/03/28 13:56:37;;;;;;;14.45;7.35;;;;;;;;;;4982413;28;20093;-79
2022/03/28 13:59:03;;;;;;;18.42;9.68;;;;;;;;;;4964526;28;20045;-80
2022/03/28 14:01:30;;;;;;;14.00;7.35;;;;;;;;;;4967479;28;20092;-78
2022/03/28 14:03:59;;;;;;;18.02;8.40;;;;;;;;;;4978897;28;20391;-79
2022/03/28 14:06:26;;;;;;;18.40;9.63;;;;;;;;;;4964788;28;20047;-78
2022/03/28 14:08:53;;;;;;;17.00;8.45;;;;;;;;;;4978707;28;20045;-79
2022/03/28 14:11:21;;;;;;;18.88;9.55;;;;;;;;;;4964281;28;20042;-79
2022/03/28 14:13:48;;;;;;;15.95;8.05;;;;;;;;;;4962820;28;20056;-78
2022/03/28 14:16:16;;;;;;;11.60;6.68;;;;;;;;;;4974024;28;20043;-81
2022/03/28 14:18:42;;;;;;;13.93;5.43;;;;;;;;;;4970702;28;20073;-78
2022/03/28 14:21:08;;;;;;;6.50;4.78;;;;;;;;;;4970453;28;20062;-79
2022/03/28 14:23:34;;;;;;;17.30;9.55;;;;;;;;;;4972632;28;20038;-78
2022/03/28 14:26:03;;;;;;;15.88;8.52;;;;;;;;;;4966534;28;20038;-80
2022/03/28 14:28:33;;;;;;;10.20;5.88;;;;;;;;;;4969513;28;20038;-80
2022/03/28 14:31:00;;;;;;;9.88;4.72;;;;;;;;;;4967292;28;20047;-79
2022/03/28 14:33:26;;;;;;;12.77;7.18;;;;;;;;;;4967822;28;20043;-81
2022/03/28 14:35:52;;;;;;;9.07;6.03;;;;;;;;;;4980573;28;20049;-79
2022/03/28 14:38:18;;;;;;;12.75;6.18;;;;;;;;;;4959830;28;20489;-79
2022/03/28 14:40:44;;;;;;;18.90;9.65;;;;;;;;;;4959693;28;20565;-80